Impacts TAF Board INFO
FOR SITUATIONAL AWARENESS. NOT TO BE USED FOR FLIGHT PLANNING PURPOSES.
IDs:

KCLT - Charlotte/Douglas In, NC, US

Issued at 1350 UTC 17 Dec 2017
Updated at 1548 UTC 17 Dec 2017
Potential Impact None Slight Moderate High
Time<<18/16Z 18/17Z 18/18Z 18/19Z 18/20Z 18/21Z 18/22Z 18/23Z 19/00Z 19/01Z 19/02Z 19/03Z 19/04Z
Type PRVL PRVL
VIS >6 >6
CIG -- --
Cover SCT SCT
FltCat VFR VFR
WX -- --
WDir 240 240
WSpd 4 4
WGst -- --

Raw TAF
KCLT 171350Z 1714/1818 15003KT P6SM SCT250
  FM171700 22005KT P6SM BKN090 BKN200
  FM172300 20004KT P6SM VCSH BKN040
  FM180400 VRB03KT P6SM BKN025
  FM181600 24004KT P6SM SCT250


METAR Board
Radar Display
Forecast Discussion

FOR SITUATIONAL AWARENESS. NOT TO BE USED FOR FLIGHT PLANNING PURPOSES.